WetterOnline ( https://www.wetteronline.ch )

Wetter aktuell Altenstadt

Aktuelles Wetter: Weiden (439m)

6-stündlich | Neueste Meldungen
Ortszeit Temperatur Wetter
Mo, 06.07. 14:00 20.0° C leicht bewölkt
Mo, 06.07. 8:00 16.0° C Sprühregen
Mo, 06.07. 2:00 19.7° C bedeckt
So, 05.07. 20:00 24.4° C fast wolkenlos
So, 05.07. 14:00 22.6° C bedeckt
So, 05.07. 8:00 18.9° C bedeckt
So, 05.07. 2:00 17.8° C fast wolkenlos
Sa, 04.07. 20:00 23.0° C fast wolkenlos
Ortszeit Temperatur Wetter
Mo, 06.07. 14:30 20.0° C wolkenlos
Mo, 06.07. 14:20 20.0° C wolkenlos
Mo, 06.07. 14:10 20.5° C fast wolkenlos
Mo, 06.07. 14:00 20.0° C leicht bewölkt
Mo, 06.07. 13:50 20.0° C leicht bewölkt
Mo, 06.07. 13:40 20.1° C leicht bewölkt
Mo, 06.07. 13:30 19.6° C leicht bewölkt
Mo, 06.07. 13:00 19.8° C wolkenlos
Mo, 06.07. 12:30 19.9° C wolkenlos
Mo, 06.07. 12:00 19.3° C wolkenlos
Mo, 06.07. 11:30 19.4° C fast wolkenlos
Ortszeit Relative Feuchte Sichtweite
Mo, 06.07. 14:00 40% 45 km
Mo, 06.07. 8:00 94% 8 km
Mo, 06.07. 2:00 72% >70 km
So, 05.07. 20:00 56% 50 km
So, 05.07. 14:00 60% >70 km
So, 05.07. 8:00 64% 60 km
So, 05.07. 2:00 62% 45 km
Sa, 04.07. 20:00 43% 55 km
Ortszeit Relative Feuchte Sichtweite
Mo, 06.07. 14:30 42% 40 km
Mo, 06.07. 14:20 42% -
Mo, 06.07. 14:10 43% -
Mo, 06.07. 14:00 40% 45 km
Mo, 06.07. 13:50 40% -
Mo, 06.07. 13:40 42% -
Mo, 06.07. 13:30 45% >70 km
Mo, 06.07. 13:00 39% >70 km
Mo, 06.07. 12:30 39% 60 km
Mo, 06.07. 12:00 46% 60 km
Mo, 06.07. 11:30 43% >70 km
Ortszeit Niederschlagsmenge Niederschlagsart
Mo, 06.07. 14:00 0.8 l/m2 in 6 Std. Regen
Mo, 06.07. 8:00 0.5 l/m2 in 12 Std. Regen
Mo, 06.07. 2:00 0.0 l/m2 in 6 Std. -
So, 05.07. 20:00 0.0 l/m2 in 12 Std. -
So, 05.07. 14:00 0.0 l/m2 in 6 Std. -
So, 05.07. 8:00 0.0 l/m2 in 12 Std. -
So, 05.07. 2:00 0.0 l/m2 in 6 Std. -
Sa, 04.07. 20:00 0.0 l/m2 in 12 Std. -
Ortszeit Niederschlagsmenge Niederschlagsart
Mo, 06.07. 14:30 0.0 l/m2 in 1 Std. -
Mo, 06.07. 14:20 keine Meldung -
Mo, 06.07. 14:10 keine Meldung -
Mo, 06.07. 14:00 0.1 l/m2 in 1 Std. Regen
Mo, 06.07. 13:50 keine Meldung -
Mo, 06.07. 13:40 keine Meldung -
Mo, 06.07. 13:30 0.0 l/m2 in 1 Std. -
Mo, 06.07. 13:00 0.0 l/m2 in 1 Std. -
Mo, 06.07. 12:30 0.0 l/m2 in 1 Std. -
Mo, 06.07. 12:00 0.1 l/m2 in 1 Std. -
Mo, 06.07. 11:30 0.0 l/m2 in 1 Std. -
Ortszeit Stärke Spitze Richtung
km/h Bft. km/h Grad Sektor
Mo, 06.07. 14:00 18 3 40 270° W
Mo, 06.07. 8:00 7 2 36 220° SW
Mo, 06.07. 2:00 9 2 24 180° S
So, 05.07. 20:00 11 2 36 240° SW
So, 05.07. 14:00 14 3 32 230° SW
So, 05.07. 8:00 9 2 22 190° S
So, 05.07. 2:00 7 2 22 180° S
Sa, 04.07. 20:00 13 3 35 240° SW
Ortszeit Stärke Spitze Richtung
km/h Bft. km/h Grad Sektor
Mo, 06.07. 14:30 22 4 40 280° W
Mo, 06.07. 14:20 22 4 - 280° W
Mo, 06.07. 14:10 19 3 - 270° W
Mo, 06.07. 14:00 18 3 36 270° W
Mo, 06.07. 13:50 18 3 - 270° W
Mo, 06.07. 13:40 15 3 - 280° W
Mo, 06.07. 13:30 15 3 37 290° W
Mo, 06.07. 13:00 18 3 40 290° W
Mo, 06.07. 12:30 24 4 35 290° W
Mo, 06.07. 12:00 17 3 39 270° W
Mo, 06.07. 11:30 22 4 39 290° W
Ortszeit Untergrenze Bedeckung Gattung
total tief tief mittel hoch
Mo, 06.07. 14:00 1500 m 3/8 3/8 - - -
Mo, 06.07. 8:00 210 m 8/8 8/8 - - -
Mo, 06.07. 2:00 1500 m 8/8 8/8 - - -
So, 05.07. 20:00 1230 m 1/8 1/8 - - -
So, 05.07. 14:00 1170 m 8/8 8/8 - - -
So, 05.07. 8:00 1800 m 8/8 8/8 - - -
So, 05.07. 2:00 2400 m 1/8 1/8 - - -
Sa, 04.07. 20:00 6600 m 1/8 1/8 - - -
Ortszeit Bedeckungsgrad in Achtel und Wolkenuntergrenze
Mo, 06.07. 14:30 keine Wolken
Mo, 06.07. 14:20 keine Wolken
Mo, 06.07. 14:10 1(1500m)
Mo, 06.07. 14:00 3(1500m)
Mo, 06.07. 13:50 3(1500m)
Mo, 06.07. 13:40 3(1500m)
Mo, 06.07. 13:30 3(1500m)
Mo, 06.07. 13:00 keine Wolken
Mo, 06.07. 12:30 keine Wolken
Mo, 06.07. 12:00 keine Wolken
Mo, 06.07. 11:30 1(960m)
Ortszeit Luftdruck NN (hPa) Tendenz (hPa in 3 Std.)
Mo, 06.07. 14:00 1013 + 0,7
Mo, 06.07. 8:00 1013 + 0,5
Mo, 06.07. 2:00 1013 - 0,8
So, 05.07. 20:00 1012 - 1,3
So, 05.07. 14:00 1015 - 1,0
So, 05.07. 8:00 1016 - 0,1
So, 05.07. 2:00 1017 0,0
Sa, 04.07. 20:00 1016 - 0,5
Ortszeit Luftdruck NN (hPa) Tendenz (hPa in 3 Std.)
Mo, 06.07. 14:30 1013 + 0,5
Mo, 06.07. 14:20 1013 keine Meldung
Mo, 06.07. 14:10 1013 keine Meldung
Mo, 06.07. 14:00 1013 + 0,7
Mo, 06.07. 13:50 1013 keine Meldung
Mo, 06.07. 13:40 1013 keine Meldung
Mo, 06.07. 13:30 1013 + 0,8
Mo, 06.07. 13:00 1013 + 0,7
Mo, 06.07. 12:30 1013 + 0,7
Mo, 06.07. 12:00 1013 + 0,4
Mo, 06.07. 11:30 1013 + 0,4
Ortszeit Schneehöhe (cm)
Mo, 06.07. 14:00 -
Mo, 06.07. 8:00 -
Mo, 06.07. 2:00 -
So, 05.07. 20:00 -
So, 05.07. 14:00 -
So, 05.07. 8:00 -
So, 05.07. 2:00 -
Sa, 04.07. 20:00 -
Ortszeit Schneehöhe (cm)
Mo, 06.07. 14:30 -
Mo, 06.07. 14:20 -
Mo, 06.07. 14:10 -
Mo, 06.07. 14:00 -
Mo, 06.07. 13:50 -
Mo, 06.07. 13:40 -
Mo, 06.07. 13:30 -
Mo, 06.07. 13:00 -
Mo, 06.07. 12:30 -
Mo, 06.07. 12:00 -
Mo, 06.07. 11:30 -
Link zu dieser Seite / Seite empfehlen

Das Wetter in ...